sensor_id;sensor_type;location;lat;lon;timestamp;P1;durP1;ratioP1;P2;durP2;ratioP2
6757;SDS011;3416;53.074;8.822;2023-04-24T00:01:25;2.72;;;2.10;;
6757;SDS011;3416;53.074;8.822;2023-04-24T00:03:55;2.10;;;1.90;;
6757;SDS011;3416;53.074;8.822;2023-04-24T00:06:24;2.00;;;1.90;;
6757;SDS011;3416;53.074;8.822;2023-04-24T00:08:58;1.88;;;1.77;;
6757;SDS011;3416;53.074;8.822;2023-04-24T00:11:25;3.60;;;2.35;;
6757;SDS011;3416;53.074;8.822;2023-04-24T00:13:52;3.17;;;1.75;;
6757;SDS011;3416;53.074;8.822;2023-04-24T00:16:19;2.13;;;1.92;;
6757;SDS011;3416;53.074;8.822;2023-04-24T00:18:46;4.30;;;2.50;;
6757;SDS011;3416;53.074;8.822;2023-04-24T00:21:15;2.38;;;1.88;;
6757;SDS011;3416;53.074;8.822;2023-04-24T00:23:42;2.10;;;1.90;;
6757;SDS011;3416;53.074;8.822;2023-04-24T00:26:09;2.55;;;2.35;;
6757;SDS011;3416;53.074;8.822;2023-04-24T00:28:36;4.15;;;2.53;;
6757;SDS011;3416;53.074;8.822;2023-04-24T00:31:03;3.45;;;2.03;;
6757;SDS011;3416;53.074;8.822;2023-04-24T00:33:30;2.65;;;2.33;;
6757;SDS011;3416;53.074;8.822;2023-04-24T00:35:58;2.53;;;2.33;;
6757;SDS011;3416;53.074;8.822;2023-04-24T00:38:26;4.28;;;2.70;;
6757;SDS011;3416;53.074;8.822;2023-04-24T00:40:53;5.95;;;3.20;;
6757;SDS011;3416;53.074;8.822;2023-04-24T00:43:20;3.33;;;2.88;;
6757;SDS011;3416;53.074;8.822;2023-04-24T00:45:47;3.13;;;2.55;;
6757;SDS011;3416;53.074;8.822;2023-04-24T00:48:14;4.35;;;2.75;;
6757;SDS011;3416;53.074;8.822;2023-04-24T00:50:43;2.88;;;2.67;;
6757;SDS011;3416;53.074;8.822;2023-04-24T00:53:10;5.68;;;3.10;;
6757;SDS011;3416;53.074;8.822;2023-04-24T00:55:38;3.60;;;2.50;;
6757;SDS011;3416;53.074;8.822;2023-04-24T00:58:05;2.70;;;2.50;;
6757;SDS011;3416;53.074;8.822;2023-04-24T01:00:33;2.70;;;2.40;;
6757;SDS011;3416;53.074;8.822;2023-04-24T01:03:00;2.72;;;2.53;;
6757;SDS011;3416;53.074;8.822;2023-04-24T01:05:31;2.65;;;2.45;;
6757;SDS011;3416;53.074;8.822;2023-04-24T01:07:58;3.92;;;2.35;;
6757;SDS011;3416;53.074;8.822;2023-04-24T01:10:26;3.13;;;2.53;;
6757;SDS011;3416;53.074;8.822;2023-04-24T01:12:56;2.83;;;2.30;;
6757;SDS011;3416;53.074;8.822;2023-04-24T01:15:24;2.67;;;2.25;;
6757;SDS011;3416;53.074;8.822;2023-04-24T01:17:51;2.58;;;2.38;;
6757;SDS011;3416;53.074;8.822;2023-04-24T01:20:19;2.75;;;2.55;;
6757;SDS011;3416;53.074;8.822;2023-04-24T01:22:48;1.92;;;1.80;;
6757;SDS011;3416;53.074;8.822;2023-04-24T01:25:15;2.65;;;2.45;;
6757;SDS011;3416;53.074;8.822;2023-04-24T01:27:42;2.35;;;2.15;;
6757;SDS011;3416;53.074;8.822;2023-04-24T01:30:10;1.92;;;1.80;;
6757;SDS011;3416;53.074;8.822;2023-04-24T01:32:38;2.95;;;2.20;;
6757;SDS011;3416;53.074;8.822;2023-04-24T01:35:07;2.92;;;2.72;;
6757;SDS011;3416;53.074;8.822;2023-04-24T01:37:34;2.40;;;2.20;;
6757;SDS011;3416;53.074;8.822;2023-04-24T01:40:04;2.28;;;2.10;;
6757;SDS011;3416;53.074;8.822;2023-04-24T01:42:32;3.42;;;1.90;;
6757;SDS011;3416;53.074;8.822;2023-04-24T01:45:00;2.15;;;1.98;;
6757;SDS011;3416;53.074;8.822;2023-04-24T01:47:30;2.30;;;2.10;;
6757;SDS011;3416;53.074;8.822;2023-04-24T01:49:57;2.60;;;2.17;;
6757;SDS011;3416;53.074;8.822;2023-04-24T01:52:24;2.35;;;2.15;;
6757;SDS011;3416;53.074;8.822;2023-04-24T01:54:52;1.73;;;1.63;;
6757;SDS011;3416;53.074;8.822;2023-04-24T01:57:22;2.90;;;2.42;;
6757;SDS011;3416;53.074;8.822;2023-04-24T01:59:50;3.67;;;2.13;;
6757;SDS011;3416;53.074;8.822;2023-04-24T02:02:17;2.55;;;2.20;;
6757;SDS011;3416;53.074;8.822;2023-04-24T02:04:46;2.20;;;2.10;;
6757;SDS011;3416;53.074;8.822;2023-04-24T02:07:13;2.20;;;2.00;;
6757;SDS011;3416;53.074;8.822;2023-04-24T02:09:40;2.55;;;2.20;;
6757;SDS011;3416;53.074;8.822;2023-04-24T02:12:07;2.45;;;2.25;;
6757;SDS011;3416;53.074;8.822;2023-04-24T02:14:35;4.82;;;2.03;;
6757;SDS011;3416;53.074;8.822;2023-04-24T02:17:02;2.33;;;2.13;;
6757;SDS011;3416;53.074;8.822;2023-04-24T02:19:30;2.30;;;2.10;;
6757;SDS011;3416;53.074;8.822;2023-04-24T02:21:56;2.83;;;2.55;;
6757;SDS011;3416;53.074;8.822;2023-04-24T02:24:23;2.35;;;2.15;;
6757;SDS011;3416;53.074;8.822;2023-04-24T02:26:50;2.30;;;2.10;;
6757;SDS011;3416;53.074;8.822;2023-04-24T02:29:17;3.03;;;2.72;;
6757;SDS011;3416;53.074;8.822;2023-04-24T02:31:45;4.28;;;3.10;;
6757;SDS011;3416;53.074;8.822;2023-04-24T02:34:12;4.00;;;3.70;;
6757;SDS011;3416;53.074;8.822;2023-04-24T02:36:39;4.65;;;4.30;;
6757;SDS011;3416;53.074;8.822;2023-04-24T02:39:06;3.70;;;3.28;;
6757;SDS011;3416;53.074;8.822;2023-04-24T02:41:33;4.05;;;3.72;;
6757;SDS011;3416;53.074;8.822;2023-04-24T02:44:00;4.32;;;3.92;;
6757;SDS011;3416;53.074;8.822;2023-04-24T02:46:27;4.72;;;4.38;;
6757;SDS011;3416;53.074;8.822;2023-04-24T02:48:55;6.47;;;4.32;;
6757;SDS011;3416;53.074;8.822;2023-04-24T02:51:22;4.60;;;4.20;;
6757;SDS011;3416;53.074;8.822;2023-04-24T02:53:50;5.00;;;3.65;;
6757;SDS011;3416;53.074;8.822;2023-04-24T02:56:17;4.28;;;3.40;;
6757;SDS011;3416;53.074;8.822;2023-04-24T02:59:00;4.20;;;3.80;;
6757;SDS011;3416;53.074;8.822;2023-04-24T03:01:27;3.88;;;3.50;;
6757;SDS011;3416;53.074;8.822;2023-04-24T03:04:01;3.60;;;3.40;;
6757;SDS011;3416;53.074;8.822;2023-04-24T03:06:28;3.65;;;3.35;;
6757;SDS011;3416;53.074;8.822;2023-04-24T03:09:04;3.63;;;3.17;;
6757;SDS011;3416;53.074;8.822;2023-04-24T03:11:31;3.33;;;3.13;;
6757;SDS011;3416;53.074;8.822;2023-04-24T03:13:58;3.67;;;3.38;;
6757;SDS011;3416;53.074;8.822;2023-04-24T03:16:25;2.80;;;2.60;;
6757;SDS011;3416;53.074;8.822;2023-04-24T03:18:52;5.47;;;3.72;;
6757;SDS011;3416;53.074;8.822;2023-04-24T03:21:20;3.88;;;3.45;;
6757;SDS011;3416;53.074;8.822;2023-04-24T03:23:52;4.18;;;3.60;;
6757;SDS011;3416;53.074;8.822;2023-04-24T03:26:19;3.45;;;3.15;;
6757;SDS011;3416;53.074;8.822;2023-04-24T03:28:46;4.10;;;3.50;;
6757;SDS011;3416;53.074;8.822;2023-04-24T03:31:22;4.18;;;3.13;;
6757;SDS011;3416;53.074;8.822;2023-04-24T03:33:49;2.60;;;2.40;;
6757;SDS011;3416;53.074;8.822;2023-04-24T03:36:22;3.72;;;3.40;;
6757;SDS011;3416;53.074;8.822;2023-04-24T03:38:49;6.68;;;2.83;;
6757;SDS011;3416;53.074;8.822;2023-04-24T03:41:20;4.70;;;3.17;;
6757;SDS011;3416;53.074;8.822;2023-04-24T03:43:48;3.50;;;3.20;;
6757;SDS011;3416;53.074;8.822;2023-04-24T03:46:15;2.90;;;2.65;;
6757;SDS011;3416;53.074;8.822;2023-04-24T03:48:42;2.85;;;2.65;;
6757;SDS011;3416;53.074;8.822;2023-04-24T03:51:14;3.38;;;3.17;;
6757;SDS011;3416;53.074;8.822;2023-04-24T03:53:42;2.40;;;2.20;;
6757;SDS011;3416;53.074;8.822;2023-04-24T03:56:10;3.95;;;2.95;;
6757;SDS011;3416;53.074;8.822;2023-04-24T03:58:37;2.53;;;2.30;;
6757;SDS011;3416;53.074;8.822;2023-04-24T04:01:10;2.92;;;2.60;;
6757;SDS011;3416;53.074;8.822;2023-04-24T04:03:37;2.63;;;2.42;;
6757;SDS011;3416;53.074;8.822;2023-04-24T04:06:04;4.32;;;2.50;;
6757;SDS011;3416;53.074;8.822;2023-04-24T04:08:31;2.78;;;2.55;;
6757;SDS011;3416;53.074;8.822;2023-04-24T04:10:59;2.83;;;2.50;;
6757;SDS011;3416;53.074;8.822;2023-04-24T04:13:26;4.70;;;2.40;;
6757;SDS011;3416;53.074;8.822;2023-04-24T04:15:53;4.32;;;2.47;;
6757;SDS011;3416;53.074;8.822;2023-04-24T04:18:20;3.15;;;2.85;;
6757;SDS011;3416;53.074;8.822;2023-04-24T04:20:47;4.70;;;2.70;;
6757;SDS011;3416;53.074;8.822;2023-04-24T04:23:14;3.65;;;2.88;;
6757;SDS011;3416;53.074;8.822;2023-04-24T04:25:41;2.80;;;2.60;;
6757;SDS011;3416;53.074;8.822;2023-04-24T04:28:09;3.70;;;2.83;;
6757;SDS011;3416;53.074;8.822;2023-04-24T04:30:36;2.70;;;2.50;;
6757;SDS011;3416;53.074;8.822;2023-04-24T04:33:03;3.78;;;2.95;;
6757;SDS011;3416;53.074;8.822;2023-04-24T04:35:30;4.97;;;2.70;;
6757;SDS011;3416;53.074;8.822;2023-04-24T04:37:57;5.18;;;2.22;;
6757;SDS011;3416;53.074;8.822;2023-04-24T04:40:24;3.95;;;2.47;;
6757;SDS011;3416;53.074;8.822;2023-04-24T04:42:51;2.67;;;2.47;;
6757;SDS011;3416;53.074;8.822;2023-04-24T04:45:20;2.53;;;1.92;;
6757;SDS011;3416;53.074;8.822;2023-04-24T04:47:49;4.03;;;2.20;;
6757;SDS011;3416;53.074;8.822;2023-04-24T04:50:16;3.40;;;2.45;;
6757;SDS011;3416;53.074;8.822;2023-04-24T04:52:44;3.17;;;2.38;;
6757;SDS011;3416;53.074;8.822;2023-04-24T04:55:11;2.60;;;2.30;;
6757;SDS011;3416;53.074;8.822;2023-04-24T04:57:39;3.90;;;2.17;;
6757;SDS011;3416;53.074;8.822;2023-04-24T05:00:07;3.30;;;2.60;;
6757;SDS011;3416;53.074;8.822;2023-04-24T05:02:38;3.22;;;2.25;;
6757;SDS011;3416;53.074;8.822;2023-04-24T05:05:07;5.03;;;2.85;;
6757;SDS011;3416;53.074;8.822;2023-04-24T05:07:34;3.85;;;2.80;;
6757;SDS011;3416;53.074;8.822;2023-04-24T05:10:01;5.72;;;2.40;;
6757;SDS011;3416;53.074;8.822;2023-04-24T05:12:28;3.08;;;2.53;;
6757;SDS011;3416;53.074;8.822;2023-04-24T05:14:57;2.67;;;2.42;;
6757;SDS011;3416;53.074;8.822;2023-04-24T05:17:24;2.72;;;1.92;;
6757;SDS011;3416;53.074;8.822;2023-04-24T05:19:54;3.58;;;3.05;;
6757;SDS011;3416;53.074;8.822;2023-04-24T05:22:21;4.20;;;3.25;;
6757;SDS011;3416;53.074;8.822;2023-04-24T05:24:49;5.10;;;3.35;;
6757;SDS011;3416;53.074;8.822;2023-04-24T05:27:16;5.45;;;3.30;;
6757;SDS011;3416;53.074;8.822;2023-04-24T05:29:42;5.28;;;2.22;;
6757;SDS011;3416;53.074;8.822;2023-04-24T05:32:10;7.70;;;3.53;;
6757;SDS011;3416;53.074;8.822;2023-04-24T05:34:36;3.75;;;3.13;;
6757;SDS011;3416;53.074;8.822;2023-04-24T05:37:05;2.70;;;2.50;;
6757;SDS011;3416;53.074;8.822;2023-04-24T05:39:34;4.05;;;2.80;;
6757;SDS011;3416;53.074;8.822;2023-04-24T05:42:02;5.28;;;3.53;;
6757;SDS011;3416;53.074;8.822;2023-04-24T05:44:29;4.57;;;2.47;;
6757;SDS011;3416;53.074;8.822;2023-04-24T05:46:57;3.67;;;3.17;;
6757;SDS011;3416;53.074;8.822;2023-04-24T05:49:24;5.47;;;3.63;;
6757;SDS011;3416;53.074;8.822;2023-04-24T05:51:51;4.95;;;4.55;;
6757;SDS011;3416;53.074;8.822;2023-04-24T05:54:19;4.20;;;3.65;;
6757;SDS011;3416;53.074;8.822;2023-04-24T05:56:46;4.90;;;4.47;;
6757;SDS011;3416;53.074;8.822;2023-04-24T05:59:13;4.95;;;4.55;;
6757;SDS011;3416;53.074;8.822;2023-04-24T06:01:41;5.93;;;4.95;;
6757;SDS011;3416;53.074;8.822;2023-04-24T06:04:09;4.93;;;4.43;;
6757;SDS011;3416;53.074;8.822;2023-04-24T06:06:36;4.60;;;4.20;;
6757;SDS011;3416;53.074;8.822;2023-04-24T06:09:03;5.68;;;5.18;;
6757;SDS011;3416;53.074;8.822;2023-04-24T06:11:31;6.13;;;5.63;;
6757;SDS011;3416;53.074;8.822;2023-04-24T06:13:58;6.35;;;5.80;;
6757;SDS011;3416;53.074;8.822;2023-04-24T06:16:25;9.57;;;6.15;;
6757;SDS011;3416;53.074;8.822;2023-04-24T06:18:53;8.25;;;7.45;;
6757;SDS011;3416;53.074;8.822;2023-04-24T06:21:20;7.40;;;6.50;;
6757;SDS011;3416;53.074;8.822;2023-04-24T06:23:47;7.97;;;7.20;;
6757;SDS011;3416;53.074;8.822;2023-04-24T06:26:14;7.18;;;6.47;;
6757;SDS011;3416;53.074;8.822;2023-04-24T06:28:43;10.18;;;6.85;;
6757;SDS011;3416;53.074;8.822;2023-04-24T06:31:10;9.07;;;6.78;;
6757;SDS011;3416;53.074;8.822;2023-04-24T06:33:37;7.07;;;6.47;;
6757;SDS011;3416;53.074;8.822;2023-04-24T06:36:05;8.45;;;7.53;;
6757;SDS011;3416;53.074;8.822;2023-04-24T06:38:33;7.85;;;7.15;;
6757;SDS011;3416;53.074;8.822;2023-04-24T06:41:02;8.20;;;7.40;;
6757;SDS011;3416;53.074;8.822;2023-04-24T06:43:30;9.63;;;8.63;;
6757;SDS011;3416;53.074;8.822;2023-04-24T06:45:58;9.90;;;8.20;;
6757;SDS011;3416;53.074;8.822;2023-04-24T06:48:26;12.20;;;9.55;;
6757;SDS011;3416;53.074;8.822;2023-04-24T06:50:53;9.75;;;8.70;;
6757;SDS011;3416;53.074;8.822;2023-04-24T06:53:20;13.27;;;9.48;;
6757;SDS011;3416;53.074;8.822;2023-04-24T06:55:47;11.30;;;10.40;;
6757;SDS011;3416;53.074;8.822;2023-04-24T06:58:14;15.27;;;10.95;;
6757;SDS011;3416;53.074;8.822;2023-04-24T07:00:41;14.02;;;11.52;;
6757;SDS011;3416;53.074;8.822;2023-04-24T07:03:09;14.00;;;11.77;;
6757;SDS011;3416;53.074;8.822;2023-04-24T07:05:36;15.48;;;12.00;;
6757;SDS011;3416;53.074;8.822;2023-04-24T07:08:04;13.55;;;12.23;;
6757;SDS011;3416;53.074;8.822;2023-04-24T07:10:31;14.48;;;11.65;;
6757;SDS011;3416;53.074;8.822;2023-04-24T07:12:59;13.98;;;12.65;;
6757;SDS011;3416;53.074;8.822;2023-04-24T07:15:26;13.98;;;12.48;;
6757;SDS011;3416;53.074;8.822;2023-04-24T07:17:53;12.70;;;11.50;;
6757;SDS011;3416;53.074;8.822;2023-04-24T07:20:22;14.25;;;12.77;;
6757;SDS011;3416;53.074;8.822;2023-04-24T07:22:49;13.52;;;11.98;;
6757;SDS011;3416;53.074;8.822;2023-04-24T07:25:16;17.63;;;11.52;;
6757;SDS011;3416;53.074;8.822;2023-04-24T07:27:44;11.90;;;10.70;;
6757;SDS011;3416;53.074;8.822;2023-04-24T07:30:11;12.43;;;9.82;;
6757;SDS011;3416;53.074;8.822;2023-04-24T07:32:38;12.55;;;10.23;;
6757;SDS011;3416;53.074;8.822;2023-04-24T07:35:05;11.48;;;10.27;;
6757;SDS011;3416;53.074;8.822;2023-04-24T07:37:36;12.35;;;8.63;;
6757;SDS011;3416;53.074;8.822;2023-04-24T07:40:03;11.88;;;9.73;;
6757;SDS011;3416;53.074;8.822;2023-04-24T07:42:30;10.73;;;8.40;;
6757;SDS011;3416;53.074;8.822;2023-04-24T07:44:59;10.30;;;9.18;;
6757;SDS011;3416;53.074;8.822;2023-04-24T07:47:26;10.43;;;9.10;;
6757;SDS011;3416;53.074;8.822;2023-04-24T07:49:53;10.32;;;9.30;;
6757;SDS011;3416;53.074;8.822;2023-04-24T07:52:21;11.32;;;9.95;;
6757;SDS011;3416;53.074;8.822;2023-04-24T07:54:49;11.60;;;9.50;;
6757;SDS011;3416;53.074;8.822;2023-04-24T07:57:17;11.95;;;8.77;;
6757;SDS011;3416;53.074;8.822;2023-04-24T07:59:44;12.10;;;9.50;;
6757;SDS011;3416;53.074;8.822;2023-04-24T08:02:11;9.43;;;8.13;;
6757;SDS011;3416;53.074;8.822;2023-04-24T08:04:38;9.55;;;8.55;;
6757;SDS011;3416;53.074;8.822;2023-04-24T08:07:05;11.15;;;8.85;;
6757;SDS011;3416;53.074;8.822;2023-04-24T08:09:32;11.30;;;8.65;;
6757;SDS011;3416;53.074;8.822;2023-04-24T08:12:01;10.80;;;9.57;;
6757;SDS011;3416;53.074;8.822;2023-04-24T08:14:28;10.52;;;8.77;;
6757;SDS011;3416;53.074;8.822;2023-04-24T08:16:55;10.43;;;9.10;;
6757;SDS011;3416;53.074;8.822;2023-04-24T08:19:22;9.75;;;8.75;;
6757;SDS011;3416;53.074;8.822;2023-04-24T08:21:51;10.60;;;9.48;;
6757;SDS011;3416;53.074;8.822;2023-04-24T08:24:18;9.25;;;8.30;;
6757;SDS011;3416;53.074;8.822;2023-04-24T08:26:45;10.18;;;9.15;;
6757;SDS011;3416;53.074;8.822;2023-04-24T08:29:16;12.90;;;8.68;;
6757;SDS011;3416;53.074;8.822;2023-04-24T08:31:43;10.75;;;8.20;;
6757;SDS011;3416;53.074;8.822;2023-04-24T08:34:10;10.85;;;9.02;;
6757;SDS011;3416;53.074;8.822;2023-04-24T08:36:38;11.60;;;9.10;;
6757;SDS011;3416;53.074;8.822;2023-04-24T08:39:06;12.23;;;10.20;;
6757;SDS011;3416;53.074;8.822;2023-04-24T08:41:34;13.73;;;9.70;;
6757;SDS011;3416;53.074;8.822;2023-04-24T08:44:02;11.35;;;9.23;;
6757;SDS011;3416;53.074;8.822;2023-04-24T08:46:32;12.77;;;10.50;;
6757;SDS011;3416;53.074;8.822;2023-04-24T08:48:59;14.00;;;11.63;;
6757;SDS011;3416;53.074;8.822;2023-04-24T08:51:27;11.73;;;10.63;;
6757;SDS011;3416;53.074;8.822;2023-04-24T08:53:55;12.20;;;10.40;;
6757;SDS011;3416;53.074;8.822;2023-04-24T08:56:23;14.95;;;11.55;;
6757;SDS011;3416;53.074;8.822;2023-04-24T08:58:51;13.73;;;11.52;;
6757;SDS011;3416;53.074;8.822;2023-04-24T09:01:18;13.60;;;12.20;;
6757;SDS011;3416;53.074;8.822;2023-04-24T09:03:47;13.65;;;12.10;;
6757;SDS011;3416;53.074;8.822;2023-04-24T09:06:16;15.10;;;12.50;;
6757;SDS011;3416;53.074;8.822;2023-04-24T09:08:45;15.57;;;12.35;;
6757;SDS011;3416;53.074;8.822;2023-04-24T09:11:15;15.13;;;11.98;;
6757;SDS011;3416;53.074;8.822;2023-04-24T09:13:42;15.25;;;13.40;;
6757;SDS011;3416;53.074;8.822;2023-04-24T09:16:09;17.58;;;15.43;;
6757;SDS011;3416;53.074;8.822;2023-04-24T09:18:37;17.95;;;16.10;;
6757;SDS011;3416;53.074;8.822;2023-04-24T09:21:08;19.58;;;15.93;;
6757;SDS011;3416;53.074;8.822;2023-04-24T09:23:35;18.33;;;14.98;;
6757;SDS011;3416;53.074;8.822;2023-04-24T09:26:02;15.20;;;13.65;;
6757;SDS011;3416;53.074;8.822;2023-04-24T09:28:32;19.30;;;15.02;;
6757;SDS011;3416;53.074;8.822;2023-04-24T09:31:02;17.73;;;15.97;;
6757;SDS011;3416;53.074;8.822;2023-04-24T09:33:33;16.10;;;14.50;;
6757;SDS011;3416;53.074;8.822;2023-04-24T09:36:00;19.67;;;15.73;;
6757;SDS011;3416;53.074;8.822;2023-04-24T09:38:33;15.13;;;13.65;;
6757;SDS011;3416;53.074;8.822;2023-04-24T09:41:03;14.85;;;13.05;;
6757;SDS011;3416;53.074;8.822;2023-04-24T09:43:32;14.57;;;13.18;;
6757;SDS011;3416;53.074;8.822;2023-04-24T09:46:05;16.38;;;13.45;;
6757;SDS011;3416;53.074;8.822;2023-04-24T09:48:35;18.02;;;13.20;;
6757;SDS011;3416;53.074;8.822;2023-04-24T09:51:05;16.23;;;13.75;;
6757;SDS011;3416;53.074;8.822;2023-04-24T09:53:37;14.65;;;12.40;;
6757;SDS011;3416;53.074;8.822;2023-04-24T09:56:07;15.20;;;13.43;;
6757;SDS011;3416;53.074;8.822;2023-04-24T09:58:35;14.65;;;13.18;;
6757;SDS011;3416;53.074;8.822;2023-04-24T10:01:03;13.82;;;12.40;;
6757;SDS011;3416;53.074;8.822;2023-04-24T10:03:30;13.95;;;12.15;;
6757;SDS011;3416;53.074;8.822;2023-04-24T10:05:59;14.15;;;12.20;;
6757;SDS011;3416;53.074;8.822;2023-04-24T10:08:26;15.15;;;13.30;;
6757;SDS011;3416;53.074;8.822;2023-04-24T10:11:01;14.35;;;12.85;;
6757;SDS011;3416;53.074;8.822;2023-04-24T10:13:29;13.43;;;12.02;;
6757;SDS011;3416;53.074;8.822;2023-04-24T10:15:56;12.90;;;11.55;;
6757;SDS011;3416;53.074;8.822;2023-04-24T10:18:26;14.85;;;13.18;;
6757;SDS011;3416;53.074;8.822;2023-04-24T10:20:53;12.82;;;11.50;;
6757;SDS011;3416;53.074;8.822;2023-04-24T10:23:21;12.88;;;11.25;;
6757;SDS011;3416;53.074;8.822;2023-04-24T10:25:48;14.57;;;10.35;;
6757;SDS011;3416;53.074;8.822;2023-04-24T10:28:18;12.45;;;11.00;;
6757;SDS011;3416;53.074;8.822;2023-04-24T10:30:46;17.60;;;11.48;;
6757;SDS011;3416;53.074;8.822;2023-04-24T10:33:14;13.35;;;10.75;;
6757;SDS011;3416;53.074;8.822;2023-04-24T10:35:45;16.63;;;10.98;;
6757;SDS011;3416;53.074;8.822;2023-04-24T10:38:15;11.63;;;10.45;;
6757;SDS011;3416;53.074;8.822;2023-04-24T10:40:45;11.77;;;10.68;;
6757;SDS011;3416;53.074;8.822;2023-04-24T10:43:13;13.30;;;11.20;;
6757;SDS011;3416;53.074;8.822;2023-04-24T10:45:59;12.40;;;11.15;;
6757;SDS011;3416;53.074;8.822;2023-04-24T10:48:27;12.07;;;10.80;;
6757;SDS011;3416;53.074;8.822;2023-04-24T10:50:54;13.63;;;10.90;;
6757;SDS011;3416;53.074;8.822;2023-04-24T10:53:21;11.23;;;10.13;;
6757;SDS011;3416;53.074;8.822;2023-04-24T10:55:49;12.27;;;11.18;;
6757;SDS011;3416;53.074;8.822;2023-04-24T10:58:22;11.35;;;10.35;;
6757;SDS011;3416;53.074;8.822;2023-04-24T11:00:57;11.52;;;9.43;;
6757;SDS011;3416;53.074;8.822;2023-04-24T11:03:26;11.75;;;10.45;;
6757;SDS011;3416;53.074;8.822;2023-04-24T11:05:57;9.70;;;8.80;;
6757;SDS011;3416;53.074;8.822;2023-04-24T11:08:27;12.77;;;10.30;;
6757;SDS011;3416;53.074;8.822;2023-04-24T11:11:03;10.68;;;9.73;;
6757;SDS011;3416;53.074;8.822;2023-04-24T11:16:38;9.98;;;9.07;;
6757;SDS011;3416;53.074;8.822;2023-04-24T11:19:10;9.93;;;8.75;;
6757;SDS011;3416;53.074;8.822;2023-04-24T11:21:44;8.00;;;7.20;;
6757;SDS011;3416;53.074;8.822;2023-04-24T11:24:29;8.75;;;7.88;;
6757;SDS011;3416;53.074;8.822;2023-04-24T11:26:58;9.02;;;8.07;;
6757;SDS011;3416;53.074;8.822;2023-04-24T11:29:39;8.73;;;7.80;;
6757;SDS011;3416;53.074;8.822;2023-04-24T11:32:15;8.85;;;8.05;;
6757;SDS011;3416;53.074;8.822;2023-04-24T11:34:49;9.07;;;8.05;;
6757;SDS011;3416;53.074;8.822;2023-04-24T11:37:18;9.27;;;8.38;;
6757;SDS011;3416;53.074;8.822;2023-04-24T11:39:45;8.50;;;7.70;;
6757;SDS011;3416;53.074;8.822;2023-04-24T11:42:13;7.82;;;7.22;;
6757;SDS011;3416;53.074;8.822;2023-04-24T11:44:42;8.60;;;7.85;;
6757;SDS011;3416;53.074;8.822;2023-04-24T11:47:11;8.48;;;7.57;;
6757;SDS011;3416;53.074;8.822;2023-04-24T11:49:37;8.27;;;7.57;;
6757;SDS011;3416;53.074;8.822;2023-04-24T11:52:04;8.20;;;7.45;;
6757;SDS011;3416;53.074;8.822;2023-04-24T11:54:31;8.98;;;8.07;;
6757;SDS011;3416;53.074;8.822;2023-04-24T11:57:00;9.10;;;8.00;;
6757;SDS011;3416;53.074;8.822;2023-04-24T11:59:34;7.57;;;6.90;;
6757;SDS011;3416;53.074;8.822;2023-04-24T12:02:03;8.95;;;8.05;;
6757;SDS011;3416;53.074;8.822;2023-04-24T12:04:38;8.50;;;7.80;;
6757;SDS011;3416;53.074;8.822;2023-04-24T12:07:07;11.30;;;9.63;;
6757;SDS011;3416;53.074;8.822;2023-04-24T12:09:42;10.55;;;9.50;;
6757;SDS011;3416;53.074;8.822;2023-04-24T12:12:11;11.18;;;10.07;;
6757;SDS011;3416;53.074;8.822;2023-04-24T12:14:42;12.05;;;10.93;;
6757;SDS011;3416;53.074;8.822;2023-04-24T12:17:11;11.82;;;10.68;;
6757;SDS011;3416;53.074;8.822;2023-04-24T12:19:44;12.43;;;11.00;;
6757;SDS011;3416;53.074;8.822;2023-04-24T12:22:17;13.82;;;12.32;;
6757;SDS011;3416;53.074;8.822;2023-04-24T12:24:57;11.70;;;10.52;;
6757;SDS011;3416;53.074;8.822;2023-04-24T12:27:25;12.35;;;10.98;;
6757;SDS011;3416;53.074;8.822;2023-04-24T12:29:53;12.07;;;10.50;;
6757;SDS011;3416;53.074;8.822;2023-04-24T12:32:23;12.30;;;10.35;;
6757;SDS011;3416;53.074;8.822;2023-04-24T12:34:53;11.40;;;10.15;;
6757;SDS011;3416;53.074;8.822;2023-04-24T12:37:22;10.18;;;9.07;;
6757;SDS011;3416;53.074;8.822;2023-04-24T12:40:00;11.48;;;10.25;;
6757;SDS011;3416;53.074;8.822;2023-04-24T12:42:28;11.30;;;8.40;;
6757;SDS011;3416;53.074;8.822;2023-04-24T12:44:59;13.70;;;8.68;;
6757;SDS011;3416;53.074;8.822;2023-04-24T12:47:28;10.35;;;9.13;;
6757;SDS011;3416;53.074;8.822;2023-04-24T12:49:56;13.73;;;10.90;;
6757;SDS011;3416;53.074;8.822;2023-04-24T12:52:23;12.15;;;10.85;;
6757;SDS011;3416;53.074;8.822;2023-04-24T12:54:52;13.55;;;11.70;;
6757;SDS011;3416;53.074;8.822;2023-04-24T12:57:20;12.25;;;9.70;;
6757;SDS011;3416;53.074;8.822;2023-04-24T12:59:47;13.07;;;10.93;;
6757;SDS011;3416;53.074;8.822;2023-04-24T13:02:14;16.60;;;11.23;;
6757;SDS011;3416;53.074;8.822;2023-04-24T13:04:43;11.10;;;9.02;;
6757;SDS011;3416;53.074;8.822;2023-04-24T13:07:11;11.63;;;7.60;;
6757;SDS011;3416;53.074;8.822;2023-04-24T13:09:39;9.48;;;6.95;;
6757;SDS011;3416;53.074;8.822;2023-04-24T13:12:07;7.28;;;6.50;;
6757;SDS011;3416;53.074;8.822;2023-04-24T13:14:34;8.52;;;7.00;;
6757;SDS011;3416;53.074;8.822;2023-04-24T13:17:01;10.48;;;9.05;;
6757;SDS011;3416;53.074;8.822;2023-04-24T13:19:28;14.98;;;10.55;;
6757;SDS011;3416;53.074;8.822;2023-04-24T13:21:57;18.80;;;12.63;;
6757;SDS011;3416;53.074;8.822;2023-04-24T13:24:24;16.23;;;12.73;;
6757;SDS011;3416;53.074;8.822;2023-04-24T13:26:51;14.50;;;12.13;;
6757;SDS011;3416;53.074;8.822;2023-04-24T13:29:18;20.38;;;12.48;;
6757;SDS011;3416;53.074;8.822;2023-04-24T13:31:46;22.77;;;16.13;;
6757;SDS011;3416;53.074;8.822;2023-04-24T13:34:14;17.20;;;11.73;;
6757;SDS011;3416;53.074;8.822;2023-04-24T13:36:41;12.88;;;9.80;;
6757;SDS011;3416;53.074;8.822;2023-04-24T13:39:09;18.67;;;11.75;;
6757;SDS011;3416;53.074;8.822;2023-04-24T13:41:36;14.57;;;11.00;;
6757;SDS011;3416;53.074;8.822;2023-04-24T13:44:03;13.80;;;9.73;;
6757;SDS011;3416;53.074;8.822;2023-04-24T13:46:31;12.60;;;9.32;;
6757;SDS011;3416;53.074;8.822;2023-04-24T13:48:58;23.77;;;11.20;;
6757;SDS011;3416;53.074;8.822;2023-04-24T13:51:25;12.48;;;8.40;;
6757;SDS011;3416;53.074;8.822;2023-04-24T13:53:52;14.05;;;9.85;;
6757;SDS011;3416;53.074;8.822;2023-04-24T13:56:21;13.18;;;10.60;;
6757;SDS011;3416;53.074;8.822;2023-04-24T13:58:48;15.38;;;11.23;;
6757;SDS011;3416;53.074;8.822;2023-04-24T14:01:15;13.70;;;10.02;;
6757;SDS011;3416;53.074;8.822;2023-04-24T14:03:42;21.38;;;12.43;;
6757;SDS011;3416;53.074;8.822;2023-04-24T14:06:09;19.83;;;10.45;;
6757;SDS011;3416;53.074;8.822;2023-04-24T14:08:37;17.90;;;9.70;;
6757;SDS011;3416;53.074;8.822;2023-04-24T14:11:05;11.48;;;8.77;;
6757;SDS011;3416;53.074;8.822;2023-04-24T14:13:33;16.92;;;9.80;;
6757;SDS011;3416;53.074;8.822;2023-04-24T14:16:00;11.57;;;8.82;;
6757;SDS011;3416;53.074;8.822;2023-04-24T14:18:27;11.30;;;7.63;;
6757;SDS011;3416;53.074;8.822;2023-04-24T14:20:54;9.80;;;7.97;;
6757;SDS011;3416;53.074;8.822;2023-04-24T14:23:21;13.68;;;8.10;;
6757;SDS011;3416;53.074;8.822;2023-04-24T14:25:48;9.85;;;7.38;;
6757;SDS011;3416;53.074;8.822;2023-04-24T14:28:17;15.25;;;8.45;;
6757;SDS011;3416;53.074;8.822;2023-04-24T14:30:46;21.27;;;8.13;;
6757;SDS011;3416;53.074;8.822;2023-04-24T14:33:14;15.07;;;7.80;;
6757;SDS011;3416;53.074;8.822;2023-04-24T14:35:42;8.63;;;6.32;;
6757;SDS011;3416;53.074;8.822;2023-04-24T14:38:09;9.27;;;7.15;;
6757;SDS011;3416;53.074;8.822;2023-04-24T14:40:36;8.52;;;6.80;;
6757;SDS011;3416;53.074;8.822;2023-04-24T14:43:03;10.38;;;7.03;;
6757;SDS011;3416;53.074;8.822;2023-04-24T14:45:30;12.13;;;6.63;;
6757;SDS011;3416;53.074;8.822;2023-04-24T14:47:59;7.47;;;5.75;;
6757;SDS011;3416;53.074;8.822;2023-04-24T14:50:25;10.75;;;6.55;;
6757;SDS011;3416;53.074;8.822;2023-04-24T14:52:53;9.32;;;6.35;;
6757;SDS011;3416;53.074;8.822;2023-04-24T14:55:22;12.75;;;7.03;;
6757;SDS011;3416;53.074;8.822;2023-04-24T14:57:50;11.63;;;7.07;;
6757;SDS011;3416;53.074;8.822;2023-04-24T15:00:17;11.18;;;6.95;;
6757;SDS011;3416;53.074;8.822;2023-04-24T15:02:45;19.33;;;6.55;;
6757;SDS011;3416;53.074;8.822;2023-04-24T15:05:13;10.88;;;6.65;;
6757;SDS011;3416;53.074;8.822;2023-04-24T15:07:40;10.40;;;7.30;;
6757;SDS011;3416;53.074;8.822;2023-04-24T15:10:07;8.45;;;6.57;;
6757;SDS011;3416;53.074;8.822;2023-04-24T15:12:35;12.93;;;9.00;;
6757;SDS011;3416;53.074;8.822;2023-04-24T15:15:02;22.77;;;8.07;;